sensor_id;sensor_type;location;lat;lon;timestamp;pressure;altitude;pressure_sealevel;temperature;humidity
34674;BME280;20879;55.668;37.858;2023-02-17T00:02:26;100609.78;;;-6.74;77.59
34674;BME280;20879;55.668;37.858;2023-02-17T00:04:55;100609.00;;;-6.73;77.30
34674;BME280;20879;55.668;37.858;2023-02-17T00:07:25;100597.19;;;-6.74;77.54
34674;BME280;20879;55.668;37.858;2023-02-17T00:10:02;100600.44;;;-6.63;77.65
34674;BME280;20879;55.668;37.858;2023-02-17T00:12:31;100596.47;;;-6.59;77.25
34674;BME280;20879;55.668;37.858;2023-02-17T00:15:03;100578.97;;;-6.70;77.23
34674;BME280;20879;55.668;37.858;2023-02-17T00:17:32;100586.00;;;-6.65;77.29
34674;BME280;20879;55.668;37.858;2023-02-17T00:20:02;100603.88;;;-6.49;77.13
34674;BME280;20879;55.668;37.858;2023-02-17T00:22:32;100594.78;;;-6.47;77.33
34674;BME280;20879;55.668;37.858;2023-02-17T00:25:07;100589.16;;;-6.43;77.10
34674;BME280;20879;55.668;37.858;2023-02-17T00:27:36;100598.47;;;-6.42;76.82
34674;BME280;20879;55.668;37.858;2023-02-17T00:30:09;100605.38;;;-6.39;76.65
34674;BME280;20879;55.668;37.858;2023-02-17T00:32:44;100593.78;;;-6.49;77.11
34674;BME280;20879;55.668;37.858;2023-02-17T00:35:13;100601.88;;;-6.41;77.03
34674;BME280;20879;55.668;37.858;2023-02-17T00:37:43;100588.41;;;-6.42;77.04
34674;BME280;20879;55.668;37.858;2023-02-17T00:40:13;100573.84;;;-6.46;76.78
34674;BME280;20879;55.668;37.858;2023-02-17T00:42:47;100578.63;;;-6.37;76.94
34674;BME280;20879;55.668;37.858;2023-02-17T00:45:19;100591.06;;;-6.27;76.39
34674;BME280;20879;55.668;37.858;2023-02-17T00:47:48;100592.50;;;-6.30;76.68
34674;BME280;20879;55.668;37.858;2023-02-17T00:50:18;100577.56;;;-6.41;76.48
34674;BME280;20879;55.668;37.858;2023-02-17T00:52:47;100592.47;;;-6.44;76.33
34674;BME280;20879;55.668;37.858;2023-02-17T00:55:16;100573.53;;;-6.51;76.45
34674;BME280;20879;55.668;37.858;2023-02-17T00:57:48;100586.13;;;-6.51;76.32
34674;BME280;20879;55.668;37.858;2023-02-17T01:00:20;100524.34;;;-6.96;76.78
34674;BME280;20879;55.668;37.858;2023-02-17T01:02:50;100586.19;;;-6.62;76.58
34674;BME280;20879;55.668;37.858;2023-02-17T01:05:23;100588.66;;;-6.76;77.25
34674;BME280;20879;55.668;37.858;2023-02-17T01:07:58;100600.03;;;-6.81;77.48
34674;BME280;20879;55.668;37.858;2023-02-17T01:10:28;100573.91;;;-6.83;77.38
34674;BME280;20879;55.668;37.858;2023-02-17T01:12:57;100585.28;;;-6.76;77.71
34674;BME280;20879;55.668;37.858;2023-02-17T01:15:28;100559.34;;;-6.87;77.76
34674;BME280;20879;55.668;37.858;2023-02-17T01:17:58;100575.97;;;-6.77;78.12
34674;BME280;20879;55.668;37.858;2023-02-17T01:20:28;100579.44;;;-6.75;78.10
34674;BME280;20879;55.668;37.858;2023-02-17T01:22:57;100587.53;;;-6.68;78.00
34674;BME280;20879;55.668;37.858;2023-02-17T01:25:28;100585.94;;;-6.54;78.31
34674;BME280;20879;55.668;37.858;2023-02-17T01:27:58;100580.44;;;-6.48;78.34
34674;BME280;20879;55.668;37.858;2023-02-17T01:30:29;100578.88;;;-6.46;78.29
34674;BME280;20879;55.668;37.858;2023-02-17T01:32:58;100577.16;;;-6.47;78.47
34674;BME280;20879;55.668;37.858;2023-02-17T01:35:28;100558.56;;;-6.61;78.49
34674;BME280;20879;55.668;37.858;2023-02-17T01:37:57;100581.75;;;-6.53;78.79
34674;BME280;20879;55.668;37.858;2023-02-17T01:40:26;100584.63;;;-6.60;78.77
34674;BME280;20879;55.668;37.858;2023-02-17T01:42:56;100581.91;;;-6.63;78.96
34674;BME280;20879;55.668;37.858;2023-02-17T01:45:40;100588.81;;;-6.61;79.79
34674;BME280;20879;55.668;37.858;2023-02-17T01:48:16;100585.22;;;-6.64;79.86
34674;BME280;20879;55.668;37.858;2023-02-17T01:50:52;100596.72;;;-6.68;81.07
34674;BME280;20879;55.668;37.858;2023-02-17T01:53:26;100588.66;;;-6.76;81.86
34674;BME280;20879;55.668;37.858;2023-02-17T01:55:57;100580.88;;;-6.79;82.34
34674;BME280;20879;55.668;37.858;2023-02-17T01:58:27;100583.44;;;-6.91;83.38
34674;BME280;20879;55.668;37.858;2023-02-17T02:01:02;100586.63;;;-6.93;83.23
34674;BME280;20879;55.668;37.858;2023-02-17T02:03:36;100577.25;;;-7.08;83.93
34674;BME280;20879;55.668;37.858;2023-02-17T02:06:09;100582.19;;;-7.09;84.02
34674;BME280;20879;55.668;37.858;2023-02-17T02:08:46;100595.94;;;-6.92;83.25
34674;BME280;20879;55.668;37.858;2023-02-17T02:11:19;100592.63;;;-6.91;82.13
34674;BME280;20879;55.668;37.858;2023-02-17T02:13:49;100588.72;;;-6.99;83.03
34674;BME280;20879;55.668;37.858;2023-02-17T02:16:30;100592.66;;;-7.03;82.87
34674;BME280;20879;55.668;37.858;2023-02-17T02:19:15;100595.53;;;-7.10;83.43
34674;BME280;20879;55.668;37.858;2023-02-17T02:25:27;100593.69;;;-7.13;85.17
34674;BME280;20879;55.668;37.858;2023-02-17T02:28:15;100594.69;;;-7.23;85.70
34674;BME280;20879;55.668;37.858;2023-02-17T02:31:18;100591.19;;;-7.25;86.67
34674;BME280;20879;55.668;37.858;2023-02-17T02:33:57;100592.50;;;-7.30;87.82
34674;BME280;20879;55.668;37.858;2023-02-17T02:36:44;100559.72;;;-7.55;88.08
34674;BME280;20879;55.668;37.858;2023-02-17T02:39:16;100592.19;;;-7.34;88.76
34674;BME280;20879;55.668;37.858;2023-02-17T02:41:48;100583.09;;;-7.32;88.77
34674;BME280;20879;55.668;37.858;2023-02-17T02:44:19;100572.50;;;-7.40;87.66
34674;BME280;20879;55.668;37.858;2023-02-17T02:46:55;100563.59;;;-7.35;88.10
34674;BME280;20879;55.668;37.858;2023-02-17T02:49:29;100585.25;;;-7.25;87.81
34674;BME280;20879;55.668;37.858;2023-02-17T02:52:07;100586.25;;;-7.23;88.50
34674;BME280;20879;55.668;37.858;2023-02-17T02:54:46;100587.44;;;-7.18;88.51
34674;BME280;20879;55.668;37.858;2023-02-17T02:57:28;100586.03;;;-7.14;87.89
34674;BME280;20879;55.668;37.858;2023-02-17T03:00:11;100577.38;;;-7.18;88.09
34674;BME280;20879;55.668;37.858;2023-02-17T03:02:48;100584.16;;;-7.17;88.44
34674;BME280;20879;55.668;37.858;2023-02-17T03:05:27;100576.31;;;-7.22;89.21
34674;BME280;20879;55.668;37.858;2023-02-17T03:08:08;100598.00;;;-6.98;87.98
34674;BME280;20879;55.668;37.858;2023-02-17T03:10:45;100591.78;;;-7.04;88.38
34674;BME280;20879;55.668;37.858;2023-02-17T03:13:15;100544.56;;;-7.31;87.96
34674;BME280;20879;55.668;37.858;2023-02-17T03:15:45;100574.56;;;-7.34;88.46
34674;BME280;20879;55.668;37.858;2023-02-17T03:18:15;100577.81;;;-7.24;87.61
34674;BME280;20879;55.668;37.858;2023-02-17T03:20:50;100559.88;;;-7.28;87.43
34674;BME280;20879;55.668;37.858;2023-02-17T03:23:25;100590.25;;;-7.02;87.14
34674;BME280;20879;55.668;37.858;2023-02-17T03:25:55;100585.44;;;-7.10;87.73
34674;BME280;20879;55.668;37.858;2023-02-17T03:28:24;100587.88;;;-7.12;88.47
34674;BME280;20879;55.668;37.858;2023-02-17T03:30:53;100593.09;;;-7.09;88.58
34674;BME280;20879;55.668;37.858;2023-02-17T03:33:23;100505.88;;;-7.57;87.97
34674;BME280;20879;55.668;37.858;2023-02-17T03:35:54;100558.13;;;-7.29;88.71
34674;BME280;20879;55.668;37.858;2023-02-17T03:38:29;100589.16;;;-7.05;88.05
34674;BME280;20879;55.668;37.858;2023-02-17T03:40:58;100593.34;;;-7.06;88.18
34674;BME280;20879;55.668;37.858;2023-02-17T03:43:28;100584.03;;;-7.07;87.90
34674;BME280;20879;55.668;37.858;2023-02-17T03:46:02;100601.88;;;-7.04;87.81
34674;BME280;20879;55.668;37.858;2023-02-17T03:48:32;100591.78;;;-7.04;87.86
34674;BME280;20879;55.668;37.858;2023-02-17T03:51:11;100603.63;;;-7.03;88.17
34674;BME280;20879;55.668;37.858;2023-02-17T03:53:41;100586.34;;;-7.10;87.99
34674;BME280;20879;55.668;37.858;2023-02-17T03:56:12;100593.44;;;-7.04;88.02
34674;BME280;20879;55.668;37.858;2023-02-17T03:58:42;100580.41;;;-7.10;87.72
34674;BME280;20879;55.668;37.858;2023-02-17T04:01:11;100588.97;;;-7.08;88.24
34674;BME280;20879;55.668;37.858;2023-02-17T04:03:41;100584.78;;;-7.08;88.47
34674;BME280;20879;55.668;37.858;2023-02-17T04:06:18;100593.88;;;-6.98;88.16
34674;BME280;20879;55.668;37.858;2023-02-17T04:08:48;100590.91;;;-6.92;87.98
34674;BME280;20879;55.668;37.858;2023-02-17T04:11:17;100592.00;;;-7.00;88.50
34674;BME280;20879;55.668;37.858;2023-02-17T04:13:46;100592.88;;;-7.00;88.18
34674;BME280;20879;55.668;37.858;2023-02-17T04:16:16;100594.09;;;-7.07;88.62
34674;BME280;20879;55.668;37.858;2023-02-17T04:18:45;100589.84;;;-7.08;88.84
34674;BME280;20879;55.668;37.858;2023-02-17T04:21:23;100597.16;;;-6.99;88.87
34674;BME280;20879;55.668;37.858;2023-02-17T04:23:59;100599.19;;;-6.81;87.40
34674;BME280;20879;55.668;37.858;2023-02-17T04:26:35;100596.75;;;-6.80;88.48
34674;BME280;20879;55.668;37.858;2023-02-17T04:29:07;100596.75;;;-6.80;87.83
34674;BME280;20879;55.668;37.858;2023-02-17T04:31:41;100604.94;;;-6.71;87.79
34674;BME280;20879;55.668;37.858;2023-02-17T04:34:11;100600.69;;;-6.72;87.24
34674;BME280;20879;55.668;37.858;2023-02-17T04:36:42;100597.63;;;-6.68;87.11
34674;BME280;20879;55.668;37.858;2023-02-17T04:39:11;100603.75;;;-6.76;87.13
34674;BME280;20879;55.668;37.858;2023-02-17T04:41:45;100602.66;;;-6.79;86.93
34674;BME280;20879;55.668;37.858;2023-02-17T04:44:15;100609.38;;;-6.92;87.37
34674;BME280;20879;55.668;37.858;2023-02-17T04:46:44;100597.63;;;-6.79;87.35
34674;BME280;20879;55.668;37.858;2023-02-17T04:49:13;100588.56;;;-6.77;86.94
34674;BME280;20879;55.668;37.858;2023-02-17T04:51:44;100594.84;;;-6.96;87.32
34674;BME280;20879;55.668;37.858;2023-02-17T04:54:14;100591.03;;;-7.03;87.91
34674;BME280;20879;55.668;37.858;2023-02-17T04:56:43;100593.97;;;-6.96;88.05
34674;BME280;20879;55.668;37.858;2023-02-17T04:59:12;100596.91;;;-6.90;88.04
34674;BME280;20879;55.668;37.858;2023-02-17T05:01:41;100598.09;;;-6.85;87.78
34674;BME280;20879;55.668;37.858;2023-02-17T05:04:15;100592.50;;;-6.81;87.42
34674;BME280;20879;55.668;37.858;2023-02-17T05:06:46;100592.34;;;-6.71;86.93
34674;BME280;20879;55.668;37.858;2023-02-17T05:09:31;100597.38;;;-6.71;86.28
34674;BME280;20879;55.668;37.858;2023-02-17T05:12:00;100602.41;;;-6.71;85.66
34674;BME280;20879;55.668;37.858;2023-02-17T05:14:36;100596.56;;;-6.83;85.96
34674;BME280;20879;55.668;37.858;2023-02-17T05:17:06;100567.59;;;-7.02;86.76
34674;BME280;20879;55.668;37.858;2023-02-17T05:19:40;100592.28;;;-6.84;86.23
34674;BME280;20879;55.668;37.858;2023-02-17T05:22:11;100596.44;;;-6.85;86.34
34674;BME280;20879;55.668;37.858;2023-02-17T05:24:40;100565.06;;;-7.02;86.41
34674;BME280;20879;55.668;37.858;2023-02-17T05:27:10;100590.06;;;-6.79;86.02
34674;BME280;20879;55.668;37.858;2023-02-17T05:29:45;100603.97;;;-6.73;85.86
34674;BME280;20879;55.668;37.858;2023-02-17T05:32:14;100603.97;;;-6.73;86.40
34674;BME280;20879;55.668;37.858;2023-02-17T05:34:43;100602.66;;;-6.79;86.73
34674;BME280;20879;55.668;37.858;2023-02-17T05:37:15;100596.00;;;-6.79;87.32
34674;BME280;20879;55.668;37.858;2023-02-17T05:39:49;100595.75;;;-6.70;87.18
34674;BME280;20879;55.668;37.858;2023-02-17T05:42:18;100588.72;;;-6.62;86.75
34674;BME280;20879;55.668;37.858;2023-02-17T05:44:48;100604.78;;;-6.48;86.32
34674;BME280;20879;55.668;37.858;2023-02-17T05:47:31;100596.31;;;-6.49;86.65
34674;BME280;20879;55.668;37.858;2023-02-17T05:50:01;100595.44;;;-6.50;86.97
34674;BME280;20879;55.668;37.858;2023-02-17T05:52:32;100611.47;;;-6.36;86.47
34674;BME280;20879;55.668;37.858;2023-02-17T05:55:02;100601.59;;;-6.33;86.36
34674;BME280;20879;55.668;37.858;2023-02-17T05:57:31;100599.09;;;-6.33;86.38
34674;BME280;20879;55.668;37.858;2023-02-17T06:00:02;100611.41;;;-6.24;86.36
34674;BME280;20879;55.668;37.858;2023-02-17T06:02:38;100592.63;;;-6.29;86.33
34674;BME280;20879;55.668;37.858;2023-02-17T06:05:08;100605.72;;;-6.21;86.39
34674;BME280;20879;55.668;37.858;2023-02-17T06:07:39;100597.59;;;-6.17;86.64
34674;BME280;20879;55.668;37.858;2023-02-17T06:10:09;100611.09;;;-6.03;86.34
34674;BME280;20879;55.668;37.858;2023-02-17T06:12:39;100607.13;;;-5.86;86.34
34674;BME280;20879;55.668;37.858;2023-02-17T06:15:13;100601.69;;;-5.79;86.58
34674;BME280;20879;55.668;37.858;2023-02-17T06:17:48;100610.28;;;-5.64;86.45
34674;BME280;20879;55.668;37.858;2023-02-17T06:20:18;100603.84;;;-5.58;86.28
34674;BME280;20879;55.668;37.858;2023-02-17T06:22:56;100555.84;;;-6.00;85.81
34674;BME280;20879;55.668;37.858;2023-02-17T06:25:25;100607.94;;;-5.47;86.13
34674;BME280;20879;55.668;37.858;2023-02-17T06:27:54;100603.56;;;-5.36;86.08
34674;BME280;20879;55.668;37.858;2023-02-17T06:30:31;100609.69;;;-5.19;85.45
34674;BME280;20879;55.668;37.858;2023-02-17T06:33:01;100616.16;;;-5.10;85.09
34674;BME280;20879;55.668;37.858;2023-02-17T06:35:30;100610.13;;;-4.98;84.90
34674;BME280;20879;55.668;37.858;2023-02-17T06:38:01;100606.88;;;-4.82;84.35
34674;BME280;20879;55.668;37.858;2023-02-17T06:40:30;100609.38;;;-4.69;84.42
34674;BME280;20879;55.668;37.858;2023-02-17T06:42:59;100593.97;;;-4.59;83.89
34674;BME280;20879;55.668;37.858;2023-02-17T06:45:29;100605.53;;;-4.34;83.52
34674;BME280;20879;55.668;37.858;2023-02-17T06:47:58;100610.78;;;-4.16;82.91
34674;BME280;20879;55.668;37.858;2023-02-17T06:50:27;100611.69;;;-4.15;81.50
34674;BME280;20879;55.668;37.858;2023-02-17T06:53:04;100609.94;;;-4.16;81.66
34674;BME280;20879;55.668;37.858;2023-02-17T06:55:33;100597.81;;;-4.07;81.29
34674;BME280;20879;55.668;37.858;2023-02-17T06:58:04;100602.81;;;-3.94;80.92
34674;BME280;20879;55.668;37.858;2023-02-17T07:00:39;100589.44;;;-4.06;79.79
34674;BME280;20879;55.668;37.858;2023-02-17T07:03:08;100584.44;;;-4.34;79.73
34674;BME280;20879;55.668;37.858;2023-02-17T07:05:43;100603.59;;;-3.95;79.98
34674;BME280;20879;55.668;37.858;2023-02-17T07:08:14;100587.25;;;-3.70;78.96
34674;BME280;20879;55.668;37.858;2023-02-17T07:10:48;100588.56;;;-3.77;77.83
34674;BME280;20879;55.668;37.858;2023-02-17T07:13:17;100596.34;;;-3.89;78.10
34674;BME280;20879;55.668;37.858;2023-02-17T07:15:46;100592.50;;;-3.97;77.70
34674;BME280;20879;55.668;37.858;2023-02-17T07:18:15;100592.31;;;-4.15;77.69
34674;BME280;20879;55.668;37.858;2023-02-17T07:20:45;100585.38;;;-4.47;78.01
34674;BME280;20879;55.668;37.858;2023-02-17T07:23:16;100596.34;;;-4.47;77.99
34674;BME280;20879;55.668;37.858;2023-02-17T07:25:46;100591.44;;;-4.30;78.31
34674;BME280;20879;55.668;37.858;2023-02-17T07:28:15;100593.03;;;-4.02;77.98
34674;BME280;20879;55.668;37.858;2023-02-17T07:30:44;100591.25;;;-3.74;77.08
34674;BME280;20879;55.668;37.858;2023-02-17T07:33:14;100589.50;;;-3.45;76.10
34674;BME280;20879;55.668;37.858;2023-02-17T07:35:43;100577.41;;;-3.34;75.81
34674;BME280;20879;55.668;37.858;2023-02-17T07:38:12;100588.72;;;-3.12;75.07
34674;BME280;20879;55.668;37.858;2023-02-17T07:40:43;100584.63;;;-2.94;74.47
34674;BME280;20879;55.668;37.858;2023-02-17T07:43:17;100586.78;;;-2.85;73.85
34674;BME280;20879;55.668;37.858;2023-02-17T07:45:53;100568.66;;;-2.76;71.99
34674;BME280;20879;55.668;37.858;2023-02-17T07:48:25;100559.69;;;-2.70;71.91
34674;BME280;20879;55.668;37.858;2023-02-17T07:50:55;100572.94;;;-2.59;71.47
34674;BME280;20879;55.668;37.858;2023-02-17T07:53:29;100570.31;;;-2.44;72.33
34674;BME280;20879;55.668;37.858;2023-02-17T07:56:01;100573.56;;;-2.47;70.14
34674;BME280;20879;55.668;37.858;2023-02-17T07:58:31;100563.41;;;-2.47;70.79
34674;BME280;20879;55.668;37.858;2023-02-17T08:01:04;100557.66;;;-2.26;69.64
34674;BME280;20879;55.668;37.858;2023-02-17T08:03:34;100572.94;;;-2.08;70.24
34674;BME280;20879;55.668;37.858;2023-02-17T08:06:07;100568.41;;;-1.97;69.42
34674;BME280;20879;55.668;37.858;2023-02-17T08:08:36;100552.28;;;-2.32;67.98
34674;BME280;20879;55.668;37.858;2023-02-17T08:11:26;100569.88;;;-2.19;69.02
34674;BME280;20879;55.668;37.858;2023-02-17T08:14:17;100567.75;;;-1.93;68.80
34674;BME280;20879;55.668;37.858;2023-02-17T08:16:53;100575.97;;;-1.63;68.56
34674;BME280;20879;55.668;37.858;2023-02-17T08:19:25;100575.16;;;-1.44;68.27
34674;BME280;20879;55.668;37.858;2023-02-17T08:22:19;100570.75;;;-1.66;66.01
34674;BME280;20879;55.668;37.858;2023-02-17T08:24:48;100572.47;;;-1.83;66.42
34674;BME280;20879;55.668;37.858;2023-02-17T08:27:19;100570.72;;;-1.84;66.49
34674;BME280;20879;55.668;37.858;2023-02-17T08:29:49;100573.97;;;-2.04;66.04
34674;BME280;20879;55.668;37.858;2023-02-17T08:32:23;100569.28;;;-2.31;66.54
34674;BME280;20879;55.668;37.858;2023-02-17T08:34:54;100571.94;;;-2.28;67.19
34674;BME280;20879;55.668;37.858;2023-02-17T08:37:25;100576.94;;;-1.95;67.59
34674;BME280;20879;55.668;37.858;2023-02-17T08:39:56;100561.75;;;-1.77;66.49
34674;BME280;20879;55.668;37.858;2023-02-17T08:42:27;100558.81;;;-1.85;65.80
34674;BME280;20879;55.668;37.858;2023-02-17T08:44:56;100562.97;;;-1.51;66.44
34674;BME280;20879;55.668;37.858;2023-02-17T08:47:26;100567.13;;;-1.53;65.16
34674;BME280;20879;55.668;37.858;2023-02-17T08:50:00;100565.28;;;-1.55;65.51
34674;BME280;20879;55.668;37.858;2023-02-17T08:52:30;100573.19;;;-1.67;65.75
34674;BME280;20879;55.668;37.858;2023-02-17T08:55:05;100576.56;;;-1.68;65.83
34674;BME280;20879;55.668;37.858;2023-02-17T08:57:41;100557.53;;;-1.59;65.45
34674;BME280;20879;55.668;37.858;2023-02-17T09:00:12;100572.47;;;-1.47;64.75
34674;BME280;20879;55.668;37.858;2023-02-17T09:02:42;100556.47;;;-1.64;64.49
34674;BME280;20879;55.668;37.858;2023-02-17T09:05:18;100569.72;;;-1.51;65.35
34674;BME280;20879;55.668;37.858;2023-02-17T09:07:47;100566.59;;;-1.46;64.81
34674;BME280;20879;55.668;37.858;2023-02-17T09:10:21;100542.88;;;-1.82;64.40
34674;BME280;20879;55.668;37.858;2023-02-17T09:12:58;100558.09;;;-1.64;65.40
34674;BME280;20879;55.668;37.858;2023-02-17T09:15:27;100562.69;;;-1.57;65.02
34674;BME280;20879;55.668;37.858;2023-02-17T09:17:57;100561.81;;;-1.58;65.18
34674;BME280;20879;55.668;37.858;2023-02-17T09:20:26;100555.72;;;-1.61;65.46
34674;BME280;20879;55.668;37.858;2023-02-17T09:22:55;100558.19;;;-1.63;64.87
34674;BME280;20879;55.668;37.858;2023-02-17T09:25:31;100561.06;;;-1.91;65.37
34674;BME280;20879;55.668;37.858;2023-02-17T09:28:03;100557.19;;;-2.19;65.84
34674;BME280;20879;55.668;37.858;2023-02-17T09:30:32;100555.16;;;-2.42;65.81
34674;BME280;20879;55.668;37.858;2023-02-17T09:33:02;100552.06;;;-2.37;65.86
34674;BME280;20879;55.668;37.858;2023-02-17T09:35:31;100550.25;;;-2.39;65.95
34674;BME280;20879;55.668;37.858;2023-02-17T09:38:06;100548.41;;;-2.42;65.99
34674;BME280;20879;55.668;37.858;2023-02-17T09:40:41;100507.50;;;-2.66;65.85
34674;BME280;20879;55.668;37.858;2023-02-17T09:43:26;100528.19;;;-2.40;65.52
34674;BME280;20879;55.668;37.858;2023-02-17T09:45:59;100543.00;;;-2.32;65.66
34674;BME280;20879;55.668;37.858;2023-02-17T09:48:32;100533.78;;;-2.13;65.94
34674;BME280;20879;55.668;37.858;2023-02-17T09:51:13;100526.81;;;-1.99;65.37
34674;BME280;20879;55.668;37.858;2023-02-17T09:53:49;100529.00;;;-1.89;64.93
34674;BME280;20879;55.668;37.858;2023-02-17T09:56:23;100538.00;;;-1.78;64.39
34674;BME280;20879;55.668;37.858;2023-02-17T09:58:58;100532.22;;;-1.75;64.58
34674;BME280;20879;55.668;37.858;2023-02-17T10:01:32;100537.88;;;-1.81;64.30
34674;BME280;20879;55.668;37.858;2023-02-17T10:04:05;100529.53;;;-1.96;64.38
34674;BME280;20879;55.668;37.858;2023-02-17T10:06:38;100522.34;;;-2.05;65.15
34674;BME280;20879;55.668;37.858;2023-02-17T10:09:12;100496.69;;;-1.93;64.66
34674;BME280;20879;55.668;37.858;2023-02-17T10:11:49;100513.91;;;-1.50;64.46
34674;BME280;20879;55.668;37.858;2023-02-17T10:14:28;100488.63;;;-1.29;62.96
34674;BME280;20879;55.668;37.858;2023-02-17T10:17:01;100513.53;;;-1.02;62.73
34674;BME280;20879;55.668;37.858;2023-02-17T10:19:42;100523.69;;;-1.21;62.34
34674;BME280;20879;55.668;37.858;2023-02-17T10:22:18;100506.75;;;-1.41;62.70
34674;BME280;20879;55.668;37.858;2023-02-17T10:24:48;100499.38;;;-1.34;63.33
34674;BME280;20879;55.668;37.858;2023-02-17T10:27:28;100513.72;;;-1.17;61.71
34674;BME280;20879;55.668;37.858;2023-02-17T10:30:17;100511.13;;;-1.18;61.18
34674;BME280;20879;55.668;37.858;2023-02-17T10:32:58;100491.78;;;-1.15;61.09
34674;BME280;20879;55.668;37.858;2023-02-17T10:35:45;100494.44;;;-1.12;61.35
34674;BME280;20879;55.668;37.858;2023-02-17T10:38:34;100489.03;;;-1.00;61.49
34674;BME280;20879;55.668;37.858;2023-02-17T10:41:10;100482.91;;;-1.05;61.36
34674;BME280;20879;55.668;37.858;2023-02-17T10:43:52;100491.50;;;-1.21;60.38
34674;BME280;20879;55.668;37.858;2023-02-17T10:46:28;100502.84;;;-1.32;61.11
34674;BME280;20879;55.668;37.858;2023-02-17T10:49:00;100488.13;;;-1.39;61.53
34674;BME280;20879;55.668;37.858;2023-02-17T10:51:33;100489.94;;;-1.37;61.98
34674;BME280;20879;55.668;37.858;2023-02-17T10:54:06;100489.88;;;-1.38;61.54
34674;BME280;20879;55.668;37.858;2023-02-17T10:56:47;100485.84;;;-1.33;61.81
34674;BME280;20879;55.668;37.858;2023-02-17T10:59:21;100462.28;;;-1.31;61.77
34674;BME280;20879;55.668;37.858;2023-02-17T11:01:55;100476.66;;;-1.12;61.53
34674;BME280;20879;55.668;37.858;2023-02-17T11:04:26;100480.34;;;-1.05;62.10
34674;BME280;20879;55.668;37.858;2023-02-17T11:07:02;100470.13;;;-1.07;61.70
34674;BME280;20879;55.668;37.858;2023-02-17T11:09:43;100475.06;;;-1.10;62.10
34674;BME280;20879;55.668;37.858;2023-02-17T11:12:15;100474.06;;;-1.13;61.79
34674;BME280;20879;55.668;37.858;2023-02-17T11:14:46;100479.19;;;-1.12;62.26
34674;BME280;20879;55.668;37.858;2023-02-17T11:17:19;100468.50;;;-1.04;61.34
34674;BME280;20879;55.668;37.858;2023-02-17T11:19:59;100463.09;;;-1.32;61.53
34674;BME280;20879;55.668;37.858;2023-02-17T11:22:33;100450.47;;;-1.48;62.13
34674;BME280;20879;55.668;37.858;2023-02-17T11:25:07;100459.47;;;-1.37;62.06
34674;BME280;20879;55.668;37.858;2023-02-17T11:27:51;100461.34;;;-1.33;62.30
34674;BME280;20879;55.668;37.858;2023-02-17T11:30:21;100464.47;;;-1.38;62.27
34674;BME280;20879;55.668;37.858;2023-02-17T11:33:14;100477.03;;;-1.42;62.41
34674;BME280;20879;55.668;37.858;2023-02-17T11:35:48;100467.47;;;-1.47;62.66
34674;BME280;20879;55.668;37.858;2023-02-17T11:38:33;100465.53;;;-1.53;62.30
34674;BME280;20879;55.668;37.858;2023-02-17T11:41:09;100461.72;;;-1.81;62.84
34674;BME280;20879;55.668;37.858;2023-02-17T11:43:49;100456.28;;;-1.88;63.82
34674;BME280;20879;55.668;37.858;2023-02-17T11:46:26;100456.41;;;-1.85;63.63
34674;BME280;20879;55.668;37.858;2023-02-17T11:49:32;100452.34;;;-1.82;63.67
34674;BME280;20879;55.668;37.858;2023-02-17T11:52:18;100452.00;;;-1.89;63.42
34674;BME280;20879;55.668;37.858;2023-02-17T11:55:06;100443.22;;;-1.78;63.36
34674;BME280;20879;55.668;37.858;2023-02-17T11:57:43;100450.88;;;-1.59;62.91
34674;BME280;20879;55.668;37.858;2023-02-17T12:00:17;100440.69;;;-1.41;62.91
34674;BME280;20879;55.668;37.858;2023-02-17T12:03:16;100435.94;;;-1.33;62.38
34674;BME280;20879;55.668;37.858;2023-02-17T12:06:02;100437.31;;;-1.39;62.49
34674;BME280;20879;55.668;37.858;2023-02-17T12:08:43;100433.06;;;-1.41;62.58
34674;BME280;20879;55.668;37.858;2023-02-17T12:11:21;100434.84;;;-1.38;63.28
34674;BME280;20879;55.668;37.858;2023-02-17T12:14:02;100416.22;;;-1.38;62.97
34674;BME280;20879;55.668;37.858;2023-02-17T12:16:42;100415.28;;;-1.21;62.83
34674;BME280;20879;55.668;37.858;2023-02-17T12:19:36;100435.66;;;-1.00;62.50
34674;BME280;20879;55.668;37.858;2023-02-17T12:22:16;100420.50;;;-1.37;62.62
34674;BME280;20879;55.668;37.858;2023-02-17T12:25:05;100429.56;;;-1.43;63.78
34674;BME280;20879;55.668;37.858;2023-02-17T12:27:49;100429.31;;;-1.49;63.84
34674;BME280;20879;55.668;37.858;2023-02-17T12:30:39;100381.16;;;-1.65;64.02
34674;BME280;20879;55.668;37.858;2023-02-17T12:33:37;100431.31;;;-1.22;63.79
34674;BME280;20879;55.668;37.858;2023-02-17T12:36:17;100417.44;;;-1.30;64.04
34674;BME280;20879;55.668;37.858;2023-02-17T12:38:53;100425.97;;;-1.48;63.91
34674;BME280;20879;55.668;37.858;2023-02-17T12:41:34;100432.13;;;-1.98;64.69
34674;BME280;20879;55.668;37.858;2023-02-17T12:44:13;100444.75;;;-2.18;65.48
34674;BME280;20879;55.668;37.858;2023-02-17T12:53:30;100427.78;;;-2.37;65.63
34674;BME280;20879;55.668;37.858;2023-02-17T12:56:06;100429.78;;;-2.48;66.32
34674;BME280;20879;55.668;37.858;2023-02-17T12:58:42;100414.72;;;-2.79;66.75
34674;BME280;20879;55.668;37.858;2023-02-17T13:01:14;100439.22;;;-2.79;67.43
34674;BME280;20879;55.668;37.858;2023-02-17T13:03:45;100446.16;;;-2.75;68.05
34674;BME280;20879;55.668;37.858;2023-02-17T13:06:22;100438.31;;;-2.64;68.92
34674;BME280;20879;55.668;37.858;2023-02-17T13:09:04;100435.25;;;-2.56;68.70
34674;BME280;20879;55.668;37.858;2023-02-17T13:11:43;100431.66;;;-2.61;68.55
34674;BME280;20879;55.668;37.858;2023-02-17T13:14:24;100418.59;;;-2.69;69.46
34674;BME280;20879;55.668;37.858;2023-02-17T13:16:54;100424.47;;;-2.70;68.81
34674;BME280;20879;55.668;37.858;2023-02-17T13:19:27;100424.81;;;-2.81;68.60
34674;BME280;20879;55.668;37.858;2023-02-17T13:21:57;100430.28;;;-2.89;68.80
34674;BME280;20879;55.668;37.858;2023-02-17T13:24:34;100409.47;;;-3.00;68.67
34674;BME280;20879;55.668;37.858;2023-02-17T13:27:12;100427.09;;;-2.85;69.07